sensor_id;sensor_type;location;lat;lon;timestamp;temperature;humidity
46139;DHT22;32398;49.112;8.598;2023-02-28T00:00:12;2.50;69.00
46139;DHT22;32398;49.112;8.598;2023-02-28T00:02:41;2.50;69.10
46139;DHT22;32398;49.112;8.598;2023-02-28T00:05:10;2.40;69.10
46139;DHT22;32398;49.112;8.598;2023-02-28T00:07:37;2.40;69.20
46139;DHT22;32398;49.112;8.598;2023-02-28T00:10:04;2.40;69.20
46139;DHT22;32398;49.112;8.598;2023-02-28T00:12:31;2.40;69.30
46139;DHT22;32398;49.112;8.598;2023-02-28T00:14:58;2.40;69.30
46139;DHT22;32398;49.112;8.598;2023-02-28T00:17:24;2.40;69.30
46139;DHT22;32398;49.112;8.598;2023-02-28T00:19:51;2.30;69.40
46139;DHT22;32398;49.112;8.598;2023-02-28T00:22:20;2.30;69.40
46139;DHT22;32398;49.112;8.598;2023-02-28T00:24:46;2.30;69.40
46139;DHT22;32398;49.112;8.598;2023-02-28T00:27:13;2.30;69.50
46139;DHT22;32398;49.112;8.598;2023-02-28T00:29:39;2.30;69.60
46139;DHT22;32398;49.112;8.598;2023-02-28T00:32:06;2.20;69.60
46139;DHT22;32398;49.112;8.598;2023-02-28T00:34:33;2.20;69.70
46139;DHT22;32398;49.112;8.598;2023-02-28T00:37:03;2.20;69.70
46139;DHT22;32398;49.112;8.598;2023-02-28T00:39:31;2.10;69.70
46139;DHT22;32398;49.112;8.598;2023-02-28T00:41:59;2.20;69.80
46139;DHT22;32398;49.112;8.598;2023-02-28T00:44:25;2.20;69.90
46139;DHT22;32398;49.112;8.598;2023-02-28T00:46:52;2.10;69.90
46139;DHT22;32398;49.112;8.598;2023-02-28T00:49:19;2.10;69.90
46139;DHT22;32398;49.112;8.598;2023-02-28T00:51:45;2.10;70.00
46139;DHT22;32398;49.112;8.598;2023-02-28T00:54:12;2.10;70.00
46139;DHT22;32398;49.112;8.598;2023-02-28T00:56:40;2.10;70.10
46139;DHT22;32398;49.112;8.598;2023-02-28T00:59:06;2.10;70.10
46139;DHT22;32398;49.112;8.598;2023-02-28T01:01:33;2.00;70.10
46139;DHT22;32398;49.112;8.598;2023-02-28T01:03:59;2.00;70.20
46139;DHT22;32398;49.112;8.598;2023-02-28T01:06:26;2.00;70.20
46139;DHT22;32398;49.112;8.598;2023-02-28T01:08:53;2.00;70.30
46139;DHT22;32398;49.112;8.598;2023-02-28T01:11:19;1.90;70.30
46139;DHT22;32398;49.112;8.598;2023-02-28T01:13:47;1.90;70.30
46139;DHT22;32398;49.112;8.598;2023-02-28T01:16:15;1.90;70.40
46139;DHT22;32398;49.112;8.598;2023-02-28T01:18:42;1.90;71.20
46139;DHT22;32398;49.112;8.598;2023-02-28T01:21:09;1.90;70.50
46139;DHT22;32398;49.112;8.598;2023-02-28T01:23:37;1.90;70.50
46139;DHT22;32398;49.112;8.598;2023-02-28T01:26:04;1.80;70.50
46139;DHT22;32398;49.112;8.598;2023-02-28T01:28:31;1.80;70.60
46139;DHT22;32398;49.112;8.598;2023-02-28T01:30:59;1.80;70.70
46139;DHT22;32398;49.112;8.598;2023-02-28T01:33:25;1.80;70.70
46139;DHT22;32398;49.112;8.598;2023-02-28T01:35:57;1.80;70.80
46139;DHT22;32398;49.112;8.598;2023-02-28T01:38:23;1.80;70.90
46139;DHT22;32398;49.112;8.598;2023-02-28T01:40:50;1.70;70.80
46139;DHT22;32398;49.112;8.598;2023-02-28T01:43:19;1.70;70.90
46139;DHT22;32398;49.112;8.598;2023-02-28T01:45:46;1.70;70.90
46139;DHT22;32398;49.112;8.598;2023-02-28T01:48:14;1.70;71.00
46139;DHT22;32398;49.112;8.598;2023-02-28T01:50:41;1.60;71.00
46139;DHT22;32398;49.112;8.598;2023-02-28T01:53:10;1.70;71.10
46139;DHT22;32398;49.112;8.598;2023-02-28T01:55:39;1.70;71.30
46139;DHT22;32398;49.112;8.598;2023-02-28T01:58:06;1.60;71.20
46139;DHT22;32398;49.112;8.598;2023-02-28T02:00:34;1.60;71.30
46139;DHT22;32398;49.112;8.598;2023-02-28T02:03:03;1.60;71.40
46139;DHT22;32398;49.112;8.598;2023-02-28T02:05:32;1.60;71.50
46139;DHT22;32398;49.112;8.598;2023-02-28T02:08:01;1.50;71.40
46139;DHT22;32398;49.112;8.598;2023-02-28T02:10:29;1.60;71.60
46139;DHT22;32398;49.112;8.598;2023-02-28T02:13:16;1.60;71.60
46139;DHT22;32398;49.112;8.598;2023-02-28T02:15:47;1.50;71.60
46139;DHT22;32398;49.112;8.598;2023-02-28T02:18:18;1.50;71.70
46139;DHT22;32398;49.112;8.598;2023-02-28T02:20:55;1.50;71.70
46139;DHT22;32398;49.112;8.598;2023-02-28T02:23:29;1.50;71.80
46139;DHT22;32398;49.112;8.598;2023-02-28T02:26:01;1.50;71.90
46139;DHT22;32398;49.112;8.598;2023-02-28T02:28:44;1.50;72.00
46139;DHT22;32398;49.112;8.598;2023-02-28T02:31:21;1.50;72.00
46139;DHT22;32398;49.112;8.598;2023-02-28T02:34:10;1.40;72.00
46139;DHT22;32398;49.112;8.598;2023-02-28T02:36:45;1.40;72.00
46139;DHT22;32398;49.112;8.598;2023-02-28T02:39:16;1.40;72.10
46139;DHT22;32398;49.112;8.598;2023-02-28T02:41:45;1.40;72.20
46139;DHT22;32398;49.112;8.598;2023-02-28T02:44:13;1.40;72.30
46139;DHT22;32398;49.112;8.598;2023-02-28T02:46:42;1.30;72.30
46139;DHT22;32398;49.112;8.598;2023-02-28T02:49:12;1.40;72.50
46139;DHT22;32398;49.112;8.598;2023-02-28T02:51:40;1.40;72.50
46139;DHT22;32398;49.112;8.598;2023-02-28T02:54:08;1.30;72.50
46139;DHT22;32398;49.112;8.598;2023-02-28T02:56:37;1.30;72.50
46139;DHT22;32398;49.112;8.598;2023-02-28T02:59:07;1.30;72.60
46139;DHT22;32398;49.112;8.598;2023-02-28T03:01:35;1.30;72.70
46139;DHT22;32398;49.112;8.598;2023-02-28T03:04:03;1.30;72.70
46139;DHT22;32398;49.112;8.598;2023-02-28T03:06:31;1.20;72.70
46139;DHT22;32398;49.112;8.598;2023-02-28T03:08:59;1.30;72.70
46139;DHT22;32398;49.112;8.598;2023-02-28T03:11:26;1.20;72.70
46139;DHT22;32398;49.112;8.598;2023-02-28T03:16:44;1.30;72.90
46139;DHT22;32398;49.112;8.598;2023-02-28T03:21:58;1.20;72.90
46139;DHT22;32398;49.112;8.598;2023-02-28T03:24:30;1.20;72.90
46139;DHT22;32398;49.112;8.598;2023-02-28T03:27:03;1.20;73.00
46139;DHT22;32398;49.112;8.598;2023-02-28T03:29:32;1.20;73.00
46139;DHT22;32398;49.112;8.598;2023-02-28T03:32:01;1.20;73.10
46139;DHT22;32398;49.112;8.598;2023-02-28T03:34:31;1.10;73.10
46139;DHT22;32398;49.112;8.598;2023-02-28T03:37:02;1.10;73.20
46139;DHT22;32398;49.112;8.598;2023-02-28T03:39:31;1.10;73.20
46139;DHT22;32398;49.112;8.598;2023-02-28T03:42:00;1.10;73.20
46139;DHT22;32398;49.112;8.598;2023-02-28T03:44:29;1.10;73.20
46139;DHT22;32398;49.112;8.598;2023-02-28T03:46:57;1.10;73.30
46139;DHT22;32398;49.112;8.598;2023-02-28T03:49:26;1.10;73.40
46139;DHT22;32398;49.112;8.598;2023-02-28T03:51:54;1.10;73.40
46139;DHT22;32398;49.112;8.598;2023-02-28T03:54:24;1.10;73.40
46139;DHT22;32398;49.112;8.598;2023-02-28T03:56:55;1.00;73.50
46139;DHT22;32398;49.112;8.598;2023-02-28T03:59:24;1.00;73.50
46139;DHT22;32398;49.112;8.598;2023-02-28T04:01:52;1.00;73.50
46139;DHT22;32398;49.112;8.598;2023-02-28T04:04:20;1.00;73.60
46139;DHT22;32398;49.112;8.598;2023-02-28T04:06:49;1.00;73.60
46139;DHT22;32398;49.112;8.598;2023-02-28T04:09:16;1.00;73.70
46139;DHT22;32398;49.112;8.598;2023-02-28T04:11:44;1.00;73.70
46139;DHT22;32398;49.112;8.598;2023-02-28T04:14:12;1.00;73.70
46139;DHT22;32398;49.112;8.598;2023-02-28T04:16:39;1.00;73.80
46139;DHT22;32398;49.112;8.598;2023-02-28T04:19:07;0.90;73.80
46139;DHT22;32398;49.112;8.598;2023-02-28T04:21:35;1.00;73.90
46139;DHT22;32398;49.112;8.598;2023-02-28T04:24:03;0.90;73.80
46139;DHT22;32398;49.112;8.598;2023-02-28T04:26:29;1.00;73.90
46139;DHT22;32398;49.112;8.598;2023-02-28T04:28:57;1.00;73.90
46139;DHT22;32398;49.112;8.598;2023-02-28T04:31:24;0.90;73.90
46139;DHT22;32398;49.112;8.598;2023-02-28T04:33:51;0.90;73.90
46139;DHT22;32398;49.112;8.598;2023-02-28T04:36:17;0.90;74.00
46139;DHT22;32398;49.112;8.598;2023-02-28T04:38:44;0.90;74.00
46139;DHT22;32398;49.112;8.598;2023-02-28T04:41:11;0.90;74.00
46139;DHT22;32398;49.112;8.598;2023-02-28T04:43:37;0.90;74.00
46139;DHT22;32398;49.112;8.598;2023-02-28T04:46:05;0.90;74.10
46139;DHT22;32398;49.112;8.598;2023-02-28T04:48:32;0.90;74.10
46139;DHT22;32398;49.112;8.598;2023-02-28T04:51:00;0.90;74.20
46139;DHT22;32398;49.112;8.598;2023-02-28T04:53:27;0.90;74.20
46139;DHT22;32398;49.112;8.598;2023-02-28T04:55:53;0.90;74.20
46139;DHT22;32398;49.112;8.598;2023-02-28T04:58:20;0.90;74.20
46139;DHT22;32398;49.112;8.598;2023-02-28T05:00:48;0.80;74.20
46139;DHT22;32398;49.112;8.598;2023-02-28T05:03:16;0.90;74.30
46139;DHT22;32398;49.112;8.598;2023-02-28T05:05:42;0.90;74.30
46139;DHT22;32398;49.112;8.598;2023-02-28T05:08:09;0.90;74.40
46139;DHT22;32398;49.112;8.598;2023-02-28T05:10:35;0.90;74.40
46139;DHT22;32398;49.112;8.598;2023-02-28T05:13:02;0.80;74.30
46139;DHT22;32398;49.112;8.598;2023-02-28T05:15:28;0.80;74.40
46139;DHT22;32398;49.112;8.598;2023-02-28T05:17:55;0.90;74.40
46139;DHT22;32398;49.112;8.598;2023-02-28T05:20:23;0.80;74.40
46139;DHT22;32398;49.112;8.598;2023-02-28T05:22:49;0.80;74.40
46139;DHT22;32398;49.112;8.598;2023-02-28T05:25:18;0.80;74.40
46139;DHT22;32398;49.112;8.598;2023-02-28T05:27:45;0.80;74.50
46139;DHT22;32398;49.112;8.598;2023-02-28T05:30:12;0.80;74.50
46139;DHT22;32398;49.112;8.598;2023-02-28T05:32:39;0.80;74.60
46139;DHT22;32398;49.112;8.598;2023-02-28T05:35:08;0.80;74.60
46139;DHT22;32398;49.112;8.598;2023-02-28T05:37:36;0.80;74.70
46139;DHT22;32398;49.112;8.598;2023-02-28T05:40:03;0.80;74.70
46139;DHT22;32398;49.112;8.598;2023-02-28T05:42:31;0.80;74.70
46139;DHT22;32398;49.112;8.598;2023-02-28T05:44:58;0.80;74.70
46139;DHT22;32398;49.112;8.598;2023-02-28T05:47:24;0.80;74.70
46139;DHT22;32398;49.112;8.598;2023-02-28T05:49:51;0.80;74.80
46139;DHT22;32398;49.112;8.598;2023-02-28T05:52:17;0.80;74.80
46139;DHT22;32398;49.112;8.598;2023-02-28T05:54:47;0.80;74.70
46139;DHT22;32398;49.112;8.598;2023-02-28T05:57:13;0.80;74.80
46139;DHT22;32398;49.112;8.598;2023-02-28T05:59:40;0.80;74.80
46139;DHT22;32398;49.112;8.598;2023-02-28T06:02:08;0.80;74.90
46139;DHT22;32398;49.112;8.598;2023-02-28T06:04:37;0.80;74.90
46139;DHT22;32398;49.112;8.598;2023-02-28T06:07:03;0.70;74.90
46139;DHT22;32398;49.112;8.598;2023-02-28T06:09:30;0.70;75.60
46139;DHT22;32398;49.112;8.598;2023-02-28T06:11:58;0.80;74.90
46139;DHT22;32398;49.112;8.598;2023-02-28T06:14:25;0.70;74.90
46139;DHT22;32398;49.112;8.598;2023-02-28T06:16:51;0.80;75.00
46139;DHT22;32398;49.112;8.598;2023-02-28T06:19:18;0.80;75.00
46139;DHT22;32398;49.112;8.598;2023-02-28T06:21:44;0.70;75.00
46139;DHT22;32398;49.112;8.598;2023-02-28T06:24:11;0.70;75.00
46139;DHT22;32398;49.112;8.598;2023-02-28T06:26:38;0.70;75.00
46139;DHT22;32398;49.112;8.598;2023-02-28T06:29:05;0.70;75.10
46139;DHT22;32398;49.112;8.598;2023-02-28T06:31:32;0.80;75.20
46139;DHT22;32398;49.112;8.598;2023-02-28T06:33:59;0.70;75.20
46139;DHT22;32398;49.112;8.598;2023-02-28T06:36:25;0.80;75.30
46139;DHT22;32398;49.112;8.598;2023-02-28T06:38:52;0.80;75.30
46139;DHT22;32398;49.112;8.598;2023-02-28T06:41:21;0.80;75.30
46139;DHT22;32398;49.112;8.598;2023-02-28T06:43:47;0.70;75.30
46139;DHT22;32398;49.112;8.598;2023-02-28T06:46:15;0.70;75.60
46139;DHT22;32398;49.112;8.598;2023-02-28T06:48:42;0.60;75.90
46139;DHT22;32398;49.112;8.598;2023-02-28T06:51:10;0.60;76.00
46139;DHT22;32398;49.112;8.598;2023-02-28T06:53:36;0.60;76.10
46139;DHT22;32398;49.112;8.598;2023-02-28T06:56:04;0.70;76.10
46139;DHT22;32398;49.112;8.598;2023-02-28T06:58:31;0.70;76.20
46139;DHT22;32398;49.112;8.598;2023-02-28T07:00:58;0.70;76.10
46139;DHT22;32398;49.112;8.598;2023-02-28T07:03:26;0.70;76.00
46139;DHT22;32398;49.112;8.598;2023-02-28T07:05:52;0.70;76.00
46139;DHT22;32398;49.112;8.598;2023-02-28T07:08:21;0.80;75.90
46139;DHT22;32398;49.112;8.598;2023-02-28T07:10:51;0.80;75.80
46139;DHT22;32398;49.112;8.598;2023-02-28T07:13:17;0.80;75.70
46139;DHT22;32398;49.112;8.598;2023-02-28T07:15:44;0.80;75.70
46139;DHT22;32398;49.112;8.598;2023-02-28T07:18:10;0.80;75.60
46139;DHT22;32398;49.112;8.598;2023-02-28T07:20:38;0.80;76.20
46139;DHT22;32398;49.112;8.598;2023-02-28T07:23:05;0.80;76.50
46139;DHT22;32398;49.112;8.598;2023-02-28T07:25:31;0.90;76.90
46139;DHT22;32398;49.112;8.598;2023-02-28T07:27:58;1.00;77.10
46139;DHT22;32398;49.112;8.598;2023-02-28T07:30:25;1.10;76.90
46139;DHT22;32398;49.112;8.598;2023-02-28T07:32:52;1.20;76.70
46139;DHT22;32398;49.112;8.598;2023-02-28T07:35:19;1.30;76.40
46139;DHT22;32398;49.112;8.598;2023-02-28T07:37:47;1.40;76.00
46139;DHT22;32398;49.112;8.598;2023-02-28T07:40:14;1.50;75.80
46139;DHT22;32398;49.112;8.598;2023-02-28T07:42:43;1.50;75.50
46139;DHT22;32398;49.112;8.598;2023-02-28T07:45:10;1.60;75.30
46139;DHT22;32398;49.112;8.598;2023-02-28T07:47:37;1.60;75.00
46139;DHT22;32398;49.112;8.598;2023-02-28T07:50:04;1.60;74.90
46139;DHT22;32398;49.112;8.598;2023-02-28T07:52:31;1.70;74.70
46139;DHT22;32398;49.112;8.598;2023-02-28T07:54:59;1.70;74.50
46139;DHT22;32398;49.112;8.598;2023-02-28T07:57:25;1.70;74.30
46139;DHT22;32398;49.112;8.598;2023-02-28T07:59:52;1.80;74.20
46139;DHT22;32398;49.112;8.598;2023-02-28T08:02:18;1.80;74.10
46139;DHT22;32398;49.112;8.598;2023-02-28T08:04:45;1.80;74.00
46139;DHT22;32398;49.112;8.598;2023-02-28T08:07:13;1.80;73.90
46139;DHT22;32398;49.112;8.598;2023-02-28T08:09:39;1.80;73.80
46139;DHT22;32398;49.112;8.598;2023-02-28T08:12:07;1.90;73.80
46139;DHT22;32398;49.112;8.598;2023-02-28T08:14:34;1.90;73.70
46139;DHT22;32398;49.112;8.598;2023-02-28T08:17:00;1.90;73.60
46139;DHT22;32398;49.112;8.598;2023-02-28T08:19:27;1.90;73.50
46139;DHT22;32398;49.112;8.598;2023-02-28T08:21:54;2.00;73.50
46139;DHT22;32398;49.112;8.598;2023-02-28T08:24:20;2.00;73.30
46139;DHT22;32398;49.112;8.598;2023-02-28T08:26:47;2.00;73.30
46139;DHT22;32398;49.112;8.598;2023-02-28T08:29:14;2.00;73.20
46139;DHT22;32398;49.112;8.598;2023-02-28T08:31:41;2.00;73.20
46139;DHT22;32398;49.112;8.598;2023-02-28T08:34:08;2.00;73.20
46139;DHT22;32398;49.112;8.598;2023-02-28T08:36:35;2.00;73.20
46139;DHT22;32398;49.112;8.598;2023-02-28T08:39:02;2.00;73.00
46139;DHT22;32398;49.112;8.598;2023-02-28T08:41:29;2.00;73.00
46139;DHT22;32398;49.112;8.598;2023-02-28T08:43:55;2.10;73.00
46139;DHT22;32398;49.112;8.598;2023-02-28T08:46:23;2.00;73.00
46139;DHT22;32398;49.112;8.598;2023-02-28T08:48:51;2.10;73.00
46139;DHT22;32398;49.112;8.598;2023-02-28T08:51:18;2.10;72.90
46139;DHT22;32398;49.112;8.598;2023-02-28T08:53:51;2.10;72.80
46139;DHT22;32398;49.112;8.598;2023-02-28T08:56:18;2.10;72.90
46139;DHT22;32398;49.112;8.598;2023-02-28T08:58:45;2.10;72.70
46139;DHT22;32398;49.112;8.598;2023-02-28T09:01:13;2.10;72.60
46139;DHT22;32398;49.112;8.598;2023-02-28T09:03:41;2.20;72.50
46139;DHT22;32398;49.112;8.598;2023-02-28T09:06:08;2.20;72.40
46139;DHT22;32398;49.112;8.598;2023-02-28T09:08:35;2.20;72.40
46139;DHT22;32398;49.112;8.598;2023-02-28T09:11:02;2.30;72.40
46139;DHT22;32398;49.112;8.598;2023-02-28T09:13:28;2.30;72.30
46139;DHT22;32398;49.112;8.598;2023-02-28T09:15:57;2.30;72.20
46139;DHT22;32398;49.112;8.598;2023-02-28T09:18:24;2.30;72.20
46139;DHT22;32398;49.112;8.598;2023-02-28T09:20:52;2.30;72.10
46139;DHT22;32398;49.112;8.598;2023-02-28T09:23:18;2.40;72.10
46139;DHT22;32398;49.112;8.598;2023-02-28T09:25:46;2.40;72.00
46139;DHT22;32398;49.112;8.598;2023-02-28T09:28:13;2.40;71.90
46139;DHT22;32398;49.112;8.598;2023-02-28T09:30:40;2.40;71.80
46139;DHT22;32398;49.112;8.598;2023-02-28T09:33:07;2.40;71.70
46139;DHT22;32398;49.112;8.598;2023-02-28T09:35:34;2.50;71.70
46139;DHT22;32398;49.112;8.598;2023-02-28T09:38:03;2.50;71.60
46139;DHT22;32398;49.112;8.598;2023-02-28T09:40:30;2.50;71.50
46139;DHT22;32398;49.112;8.598;2023-02-28T09:42:57;2.60;71.40
46139;DHT22;32398;49.112;8.598;2023-02-28T09:45:26;2.60;71.20
46139;DHT22;32398;49.112;8.598;2023-02-28T09:47:56;2.60;71.10
46139;DHT22;32398;49.112;8.598;2023-02-28T09:50:28;2.70;71.00
46139;DHT22;32398;49.112;8.598;2023-02-28T09:52:58;2.70;70.90
46139;DHT22;32398;49.112;8.598;2023-02-28T09:55:28;2.80;70.70
46139;DHT22;32398;49.112;8.598;2023-02-28T09:57:55;2.80;70.60
46139;DHT22;32398;49.112;8.598;2023-02-28T10:00:27;2.90;70.50
46139;DHT22;32398;49.112;8.598;2023-02-28T10:03:03;2.90;70.30
46139;DHT22;32398;49.112;8.598;2023-02-28T10:05:31;2.90;70.10
46139;DHT22;32398;49.112;8.598;2023-02-28T10:08:02;3.00;69.90
46139;DHT22;32398;49.112;8.598;2023-02-28T10:10:34;3.10;69.80
46139;DHT22;32398;49.112;8.598;2023-02-28T10:13:03;3.10;69.60
46139;DHT22;32398;49.112;8.598;2023-02-28T10:15:31;3.20;69.40
46139;DHT22;32398;49.112;8.598;2023-02-28T10:17:58;3.30;69.30
46139;DHT22;32398;49.112;8.598;2023-02-28T10:20:27;3.30;69.10
46139;DHT22;32398;49.112;8.598;2023-02-28T10:22:57;3.30;69.00
46139;DHT22;32398;49.112;8.598;2023-02-28T10:25:26;3.40;68.90
46139;DHT22;32398;49.112;8.598;2023-02-28T10:27:54;3.40;68.90
46139;DHT22;32398;49.112;8.598;2023-02-28T10:30:25;3.30;68.60
46139;DHT22;32398;49.112;8.598;2023-02-28T10:32:51;3.30;68.70
46139;DHT22;32398;49.112;8.598;2023-02-28T10:35:20;3.30;68.80
46139;DHT22;32398;49.112;8.598;2023-02-28T10:37:48;3.30;68.90
46139;DHT22;32398;49.112;8.598;2023-02-28T10:43:00;3.30;69.20
46139;DHT22;32398;49.112;8.598;2023-02-28T10:45:27;3.20;69.20
46139;DHT22;32398;49.112;8.598;2023-02-28T10:47:55;3.30;69.40
46139;DHT22;32398;49.112;8.598;2023-02-28T10:50:27;3.20;69.30
46139;DHT22;32398;49.112;8.598;2023-02-28T10:52:53;3.30;69.20
46139;DHT22;32398;49.112;8.598;2023-02-28T10:55:21;3.40;69.10
46139;DHT22;32398;49.112;8.598;2023-02-28T10:57:48;3.40;69.00
46139;DHT22;32398;49.112;8.598;2023-02-28T11:00:17;3.40;68.80
46139;DHT22;32398;49.112;8.598;2023-02-28T11:02:44;3.50;68.70
46139;DHT22;32398;49.112;8.598;2023-02-28T11:05:25;3.50;68.70
46139;DHT22;32398;49.112;8.598;2023-02-28T11:07:52;3.60;68.60
46139;DHT22;32398;49.112;8.598;2023-02-28T11:10:20;3.60;68.40
46139;DHT22;32398;49.112;8.598;2023-02-28T11:12:50;3.70;68.30
46139;DHT22;32398;49.112;8.598;2023-02-28T11:15:23;3.80;68.00
46139;DHT22;32398;49.112;8.598;2023-02-28T11:17:54;3.90;67.90
46139;DHT22;32398;49.112;8.598;2023-02-28T11:20:21;4.00;67.90
46139;DHT22;32398;49.112;8.598;2023-02-28T11:22:48;4.10;67.90
46139;DHT22;32398;49.112;8.598;2023-02-28T11:25:19;4.20;68.10
46139;DHT22;32398;49.112;8.598;2023-02-28T11:27:48;4.20;67.70
46139;DHT22;32398;49.112;8.598;2023-02-28T11:30:27;4.30;66.80
46139;DHT22;32398;49.112;8.598;2023-02-28T11:32:54;4.40;67.00
46139;DHT22;32398;49.112;8.598;2023-02-28T11:35:21;4.50;67.00
46139;DHT22;32398;49.112;8.598;2023-02-28T11:37:49;4.60;66.50
46139;DHT22;32398;49.112;8.598;2023-02-28T11:40:17;4.60;66.80
46139;DHT22;32398;49.112;8.598;2023-02-28T11:42:46;4.70;66.20
46139;DHT22;32398;49.112;8.598;2023-02-28T11:45:22;4.70;66.60
46139;DHT22;32398;49.112;8.598;2023-02-28T11:47:52;4.70;66.70
46139;DHT22;32398;49.112;8.598;2023-02-28T11:50:36;4.70;66.50
46139;DHT22;32398;49.112;8.598;2023-02-28T11:53:05;4.70;66.30
46139;DHT22;32398;49.112;8.598;2023-02-28T11:55:36;4.70;66.80
46139;DHT22;32398;49.112;8.598;2023-02-28T11:58:05;4.70;66.50
46139;DHT22;32398;49.112;8.598;2023-02-28T12:00:42;4.60;66.60
46139;DHT22;32398;49.112;8.598;2023-02-28T12:03:17;4.60;66.70
46139;DHT22;32398;49.112;8.598;2023-02-28T12:05:49;4.60;66.90
46139;DHT22;32398;49.112;8.598;2023-02-28T12:08:23;4.50;67.10
46139;DHT22;32398;49.112;8.598;2023-02-28T12:10:56;4.50;66.80
46139;DHT22;32398;49.112;8.598;2023-02-28T12:13:25;4.50;66.70
46139;DHT22;32398;49.112;8.598;2023-02-28T12:15:59;4.40;66.40
46139;DHT22;32398;49.112;8.598;2023-02-28T12:18:40;4.50;66.60
46139;DHT22;32398;49.112;8.598;2023-02-28T12:21:11;4.40;66.70
46139;DHT22;32398;49.112;8.598;2023-02-28T12:23:44;4.40;66.70
46139;DHT22;32398;49.112;8.598;2023-02-28T12:26:14;4.40;66.80
46139;DHT22;32398;49.112;8.598;2023-02-28T12:28:43;4.40;67.30
46139;DHT22;32398;49.112;8.598;2023-02-28T12:31:14;4.40;67.10
46139;DHT22;32398;49.112;8.598;2023-02-28T12:33:43;4.40;67.00
46139;DHT22;32398;49.112;8.598;2023-02-28T12:36:11;4.40;67.00
46139;DHT22;32398;49.112;8.598;2023-02-28T12:38:43;4.40;67.00
46139;DHT22;32398;49.112;8.598;2023-02-28T12:41:11;4.40;67.30
46139;DHT22;32398;49.112;8.598;2023-02-28T12:43:40;4.50;67.00
46139;DHT22;32398;49.112;8.598;2023-02-28T12:46:09;4.50;67.10
46139;DHT22;32398;49.112;8.598;2023-02-28T12:48:37;4.50;66.90
46139;DHT22;32398;49.112;8.598;2023-02-28T12:51:07;4.50;66.80
46139;DHT22;32398;49.112;8.598;2023-02-28T12:53:36;4.60;66.80
46139;DHT22;32398;49.112;8.598;2023-02-28T12:56:08;4.70;67.00
46139;DHT22;32398;49.112;8.598;2023-02-28T12:58:37;4.70;66.50
46139;DHT22;32398;49.112;8.598;2023-02-28T13:01:12;4.70;66.20
46139;DHT22;32398;49.112;8.598;2023-02-28T13:04:04;4.70;66.10
46139;DHT22;32398;49.112;8.598;2023-02-28T13:06:44;4.80;66.00
46139;DHT22;32398;49.112;8.598;2023-02-28T13:09:17;4.80;65.80
46139;DHT22;32398;49.112;8.598;2023-02-28T13:11:44;4.90;65.80
46139;DHT22;32398;49.112;8.598;2023-02-28T13:14:24;4.80;65.80
46139;DHT22;32398;49.112;8.598;2023-02-28T13:16:56;4.80;65.40
46139;DHT22;32398;49.112;8.598;2023-02-28T13:19:24;4.90;65.70
46139;DHT22;32398;49.112;8.598;2023-02-28T13:21:52;4.90;66.10
46139;DHT22;32398;49.112;8.598;2023-02-28T13:24:40;4.90;65.60
46139;DHT22;32398;49.112;8.598;2023-02-28T13:27:17;5.00;65.60
46139;DHT22;32398;49.112;8.598;2023-02-28T13:29:50;5.10;65.30
46139;DHT22;32398;49.112;8.598;2023-02-28T13:35:14;5.20;65.00
46139;DHT22;32398;49.112;8.598;2023-02-28T13:37:45;5.30;64.70
46139;DHT22;32398;49.112;8.598;2023-02-28T13:40:31;5.30;64.50
46139;DHT22;32398;49.112;8.598;2023-02-28T13:43:02;5.40;64.90
46139;DHT22;32398;49.112;8.598;2023-02-28T13:45:29;5.40;64.90
46139;DHT22;32398;49.112;8.598;2023-02-28T13:48:02;5.50;64.80
46139;DHT22;32398;49.112;8.598;2023-02-28T13:50:31;5.50;64.40
46139;DHT22;32398;49.112;8.598;2023-02-28T13:53:08;5.50;64.50
46139;DHT22;32398;49.112;8.598;2023-02-28T13:55:41;5.50;64.60
46139;DHT22;32398;49.112;8.598;2023-02-28T13:58:17;5.50;64.70
46139;DHT22;32398;49.112;8.598;2023-02-28T14:00:59;5.40;64.00
46139;DHT22;32398;49.112;8.598;2023-02-28T14:03:38;5.50;64.10
46139;DHT22;32398;49.112;8.598;2023-02-28T14:06:08;5.50;64.10
46139;DHT22;32398;49.112;8.598;2023-02-28T14:08:36;5.50;64.70
46139;DHT22;32398;49.112;8.598;2023-02-28T14:11:03;5.50;65.10
46139;DHT22;32398;49.112;8.598;2023-02-28T14:13:37;5.50;64.60
46139;DHT22;32398;49.112;8.598;2023-02-28T14:16:09;5.40;64.50
46139;DHT22;32398;49.112;8.598;2023-02-28T14:18:36;5.40;64.70
46139;DHT22;32398;49.112;8.598;2023-02-28T14:21:09;5.40;64.50
46139;DHT22;32398;49.112;8.598;2023-02-28T14:23:45;5.40;64.50
46139;DHT22;32398;49.112;8.598;2023-02-28T14:26:18;5.40;64.60
46139;DHT22;32398;49.112;8.598;2023-02-28T14:28:53;5.40;64.40
46139;DHT22;32398;49.112;8.598;2023-02-28T14:31:23;5.50;64.70
46139;DHT22;32398;49.112;8.598;2023-02-28T14:33:58;5.50;64.60
46139;DHT22;32398;49.112;8.598;2023-02-28T14:36:31;5.50;64.50
46139;DHT22;32398;49.112;8.598;2023-02-28T14:39:00;5.50;64.80
46139;DHT22;32398;49.112;8.598;2023-02-28T14:41:29;5.50;64.20
46139;DHT22;32398;49.112;8.598;2023-02-28T14:43:57;5.50;63.70
46139;DHT22;32398;49.112;8.598;2023-02-28T14:46:25;5.50;63.50
46139;DHT22;32398;49.112;8.598;2023-02-28T14:48:53;5.50;63.50
46139;DHT22;32398;49.112;8.598;2023-02-28T14:51:20;5.60;64.60
46139;DHT22;32398;49.112;8.598;2023-02-28T14:53:49;5.60;63.90
46139;DHT22;32398;49.112;8.598;2023-02-28T14:56:21;5.60;63.60
46139;DHT22;32398;49.112;8.598;2023-02-28T14:58:52;5.70;63.30
46139;DHT22;32398;49.112;8.598;2023-02-28T15:01:19;5.70;63.50
46139;DHT22;32398;49.112;8.598;2023-02-28T15:03:47;5.80;64.00
46139;DHT22;32398;49.112;8.598;2023-02-28T15:06:14;5.80;63.70
46139;DHT22;32398;49.112;8.598;2023-02-28T15:08:42;5.80;63.50
46139;DHT22;32398;49.112;8.598;2023-02-28T15:11:12;5.80;63.20
46139;DHT22;32398;49.112;8.598;2023-02-28T15:13:41;5.80;63.30
46139;DHT22;32398;49.112;8.598;2023-02-28T15:16:10;5.90;63.70
46139;DHT22;32398;49.112;8.598;2023-02-28T15:18:41;5.90;63.80
46139;DHT22;32398;49.112;8.598;2023-02-28T15:21:14;5.90;63.60
46139;DHT22;32398;49.112;8.598;2023-02-28T15:23:42;5.90;63.50
46139;DHT22;32398;49.112;8.598;2023-02-28T15:26:10;5.90;63.40
46139;DHT22;32398;49.112;8.598;2023-02-28T15:28:38;5.90;63.20
46139;DHT22;32398;49.112;8.598;2023-02-28T15:31:17;5.90;62.70
46139;DHT22;32398;49.112;8.598;2023-02-28T15:33:51;5.90;62.70
46139;DHT22;32398;49.112;8.598;2023-02-28T15:36:18;5.90;62.50
46139;DHT22;32398;49.112;8.598;2023-02-28T15:38:46;5.90;63.20
46139;DHT22;32398;49.112;8.598;2023-02-28T15:41:21;5.90;62.80
46139;DHT22;32398;49.112;8.598;2023-02-28T15:43:48;5.90;63.20
46139;DHT22;32398;49.112;8.598;2023-02-28T15:46:15;5.80;63.40
46139;DHT22;32398;49.112;8.598;2023-02-28T15:48:42;5.80;63.20
46139;DHT22;32398;49.112;8.598;2023-02-28T15:51:14;5.80;63.30
46139;DHT22;32398;49.112;8.598;2023-02-28T15:53:45;5.70;63.40
46139;DHT22;32398;49.112;8.598;2023-02-28T15:56:19;5.70;63.80
46139;DHT22;32398;49.112;8.598;2023-02-28T15:58:46;5.70;64.00
46139;DHT22;32398;49.112;8.598;2023-02-28T16:01:18;5.70;64.40
46139;DHT22;32398;49.112;8.598;2023-02-28T16:03:46;5.60;63.90
46139;DHT22;32398;49.112;8.598;2023-02-28T16:06:28;5.60;64.00